Time;durP1;ratioP1;P1;durP2;ratioP2;P2;SDS_P1;SDS_P2;PMS_P1;PMS_P2;Temp;Humidity;BMP_temperature;BMP_pressure;BME280_temperature;BME280_humidity;BME280_pressure;Samples;Min_cycle;Max_cycle;Signal;HPM_P1;HPM_P2
2023/11/07 00:02:22;;;;;;;13.45;8.40;;;10.00;99.90;;;;;;4978455;28;20289;-71
2023/11/07 00:04:49;;;;;;;13.98;8.65;;;10.10;99.90;;;;;;4982778;28;20269;-69
2023/11/07 00:07:15;;;;;;;14.10;9.48;;;10.00;99.90;;;;;;4998288;28;20285;-69
2023/11/07 00:09:42;;;;;;;17.27;8.60;;;10.10;99.90;;;;;;4989479;28;20223;-70
2023/11/07 00:12:09;;;;;;;11.30;8.02;;;10.20;99.90;;;;;;4990488;28;20205;-68
2023/11/07 00:14:37;;;;;;;14.63;9.15;;;10.00;99.90;;;;;;4982366;28;20305;-71
2023/11/07 00:17:04;;;;;;;12.52;7.38;;;10.00;99.90;;;;;;4984980;28;20305;-69
2023/11/07 00:19:32;;;;;;;9.82;7.47;;;10.00;99.90;;;;;;4983790;28;20202;-69
2023/11/07 00:21:59;;;;;;;9.75;8.02;;;10.00;99.90;;;;;;4981040;28;20290;-69
2023/11/07 00:24:26;;;;;;;16.52;8.13;;;10.00;99.90;;;;;;4985392;28;20221;-70
2023/11/07 00:26:53;;;;;;;11.30;8.07;;;10.00;99.90;;;;;;4982340;28;20207;-69
2023/11/07 00:29:21;;;;;;;12.82;9.15;;;10.00;99.90;;;;;;4988288;28;20226;-69
2023/11/07 00:31:51;;;;;;;11.25;7.88;;;10.00;99.90;;;;;;4960056;28;20260;-70
2023/11/07 00:34:17;;;;;;;11.02;7.35;;;10.00;99.90;;;;;;4983494;28;20228;-70
2023/11/07 00:36:46;;;;;;;12.88;7.25;;;10.10;99.90;;;;;;4992441;28;20332;-71
2023/11/07 00:39:13;;;;;;;12.80;8.10;;;10.00;99.90;;;;;;4980428;28;20620;-69
2023/11/07 00:41:40;;;;;;;12.70;6.30;;;10.00;99.90;;;;;;4985868;28;20657;-70
2023/11/07 00:44:07;;;;;;;13.40;7.40;;;10.10;99.90;;;;;;4978915;28;20309;-71
2023/11/07 00:46:34;;;;;;;12.82;8.32;;;10.10;99.90;;;;;;4990541;28;20560;-73
2023/11/07 00:49:03;;;;;;;13.20;7.18;;;10.10;99.90;;;;;;4978833;28;20211;-72
2023/11/07 00:51:30;;;;;;;19.65;8.27;;;10.10;99.90;;;;;;4988213;28;20273;-72
2023/11/07 00:53:57;;;;;;;9.52;6.10;;;10.10;99.90;;;;;;4993353;28;20226;-69
2023/11/07 00:56:23;;;;;;;13.35;6.90;;;10.10;99.90;;;;;;4994451;28;20678;-70
2023/11/07 00:58:50;;;;;;;7.53;6.32;;;10.10;99.90;;;;;;4987958;28;20235;-70
2023/11/07 01:01:17;;;;;;;8.02;6.13;;;10.10;99.90;;;;;;4981593;28;20306;-68
2023/11/07 01:03:45;;;;;;;14.38;6.68;;;10.10;99.90;;;;;;4985113;28;20233;-71
2023/11/07 01:06:13;;;;;;;14.68;6.47;;;10.00;99.90;;;;;;4989311;28;20329;-68
2023/11/07 01:08:40;;;;;;;10.77;6.40;;;10.00;99.90;;;;;;4990056;28;20202;-70
2023/11/07 01:11:07;;;;;;;11.68;6.85;;;10.00;99.90;;;;;;4994008;28;20229;-69
2023/11/07 01:13:35;;;;;;;12.57;6.32;;;10.00;99.90;;;;;;4990886;28;20223;-69
2023/11/07 01:16:04;;;;;;;11.98;6.35;;;9.90;99.90;;;;;;4985282;28;20282;-70
2023/11/07 01:18:31;;;;;;;12.15;7.15;;;9.90;99.90;;;;;;4989975;28;20265;-68
2023/11/07 01:20:58;;;;;;;9.40;6.03;;;9.90;99.90;;;;;;4984433;28;20283;-70
2023/11/07 01:23:26;;;;;;;9.95;5.93;;;9.80;99.90;;;;;;4987273;28;20230;-70
2023/11/07 01:25:53;;;;;;;13.45;5.93;;;9.80;99.90;;;;;;4997108;28;20659;-69
2023/11/07 01:28:21;;;;;;;15.65;7.15;;;9.80;99.90;;;;;;4981469;28;20245;-70
2023/11/07 01:30:48;;;;;;;12.02;7.20;;;9.70;99.90;;;;;;4988553;28;20664;-68
2023/11/07 01:33:15;;;;;;;12.15;6.38;;;9.80;99.90;;;;;;4992909;28;20210;-70
2023/11/07 01:35:42;;;;;;;10.07;6.32;;;9.70;99.90;;;;;;4987830;28;20206;-72
2023/11/07 01:38:09;;;;;;;8.07;5.90;;;9.70;99.90;;;;;;4999518;28;20222;-71
2023/11/07 01:40:38;;;;;;;14.55;6.45;;;9.80;99.90;;;;;;4996909;28;20225;-72
2023/11/07 01:43:15;;;;;;;18.27;6.30;;;9.80;99.90;;;;;;5003042;28;20204;-69
2023/11/07 01:45:43;;;;;;;8.95;5.70;;;9.90;99.90;;;;;;4998823;28;20201;-67
2023/11/07 01:48:12;;;;;;;16.75;6.57;;;9.80;99.90;;;;;;4995526;28;20572;-70
2023/11/07 01:50:39;;;;;;;11.18;7.85;;;9.80;99.90;;;;;;4988919;28;20635;-68
2023/11/07 01:53:07;;;;;;;9.50;6.13;;;9.70;99.90;;;;;;4983743;28;20202;-69
2023/11/07 01:55:35;;;;;;;11.13;6.75;;;9.70;99.90;;;;;;4985453;28;20213;-70
2023/11/07 01:58:03;;;;;;;11.27;6.97;;;9.70;99.90;;;;;;4991566;28;20228;-71
2023/11/07 02:00:30;;;;;;;10.75;6.72;;;9.70;99.90;;;;;;4982231;28;20202;-70
2023/11/07 02:02:58;;;;;;;14.52;6.50;;;9.70;99.90;;;;;;4985884;28;20206;-70
2023/11/07 02:05:25;;;;;;;11.95;6.03;;;9.70;99.90;;;;;;4991348;28;20651;-69
2023/11/07 02:07:52;;;;;;;11.25;6.50;;;9.70;99.90;;;;;;4987727;28;20221;-71
2023/11/07 02:10:20;;;;;;;13.90;6.20;;;9.70;99.90;;;;;;4989162;28;20727;-69
2023/11/07 02:12:47;;;;;;;14.98;6.63;;;9.70;99.90;;;;;;5008733;28;20205;-70
2023/11/07 02:15:26;;;;;;;12.15;7.22;;;9.70;99.90;;;;;;4981625;28;20641;-68
2023/11/07 02:17:53;;;;;;;10.30;6.55;;;9.80;99.90;;;;;;4982689;28;20221;-68
2023/11/07 02:20:20;;;;;;;10.55;5.85;;;9.70;99.90;;;;;;4983900;28;20194;-69
2023/11/07 02:22:48;;;;;;;10.32;5.30;;;9.70;99.90;;;;;;4981952;28;20212;-70
2023/11/07 02:25:18;;;;;;;11.52;6.03;;;9.70;99.90;;;;;;4982432;28;20226;-68
2023/11/07 02:27:45;;;;;;;8.32;6.50;;;9.70;99.90;;;;;;4989677;28;20202;-69
2023/11/07 02:30:14;;;;;;;10.98;5.47;;;9.70;99.90;;;;;;4987644;28;20213;-68
2023/11/07 02:32:41;;;;;;;8.38;5.38;;;9.70;99.90;;;;;;4979942;28;20294;-69
2023/11/07 02:35:10;;;;;;;9.40;5.25;;;9.70;99.90;;;;;;4983278;28;20283;-72
2023/11/07 02:37:38;;;;;;;10.82;5.55;;;9.80;99.90;;;;;;4979870;28;20253;-70
2023/11/07 02:40:06;;;;;;;12.82;6.82;;;9.80;99.90;;;;;;4985102;28;20198;-70
2023/11/07 02:42:35;;;;;;;10.57;5.70;;;9.70;99.90;;;;;;4988374;28;20697;-71
2023/11/07 02:45:02;;;;;;;12.23;5.22;;;9.80;99.90;;;;;;4985078;28;20257;-70
2023/11/07 02:47:30;;;;;;;12.65;7.07;;;9.80;99.90;;;;;;4992788;28;20203;-70
2023/11/07 02:49:57;;;;;;;10.60;5.60;;;9.90;99.90;;;;;;4981323;28;20202;-70
2023/11/07 02:52:24;;;;;;;12.68;5.85;;;9.90;99.90;;;;;;4986809;28;20207;-69
2023/11/07 02:54:51;;;;;;;11.82;6.13;;;9.90;99.90;;;;;;4979202;28;20232;-70
2023/11/07 02:57:19;;;;;;;7.68;4.35;;;10.00;99.90;;;;;;4980787;28;20683;-69
2023/11/07 02:59:47;;;;;;;8.43;5.80;;;10.00;99.90;;;;;;4985631;28;20214;-67
2023/11/07 03:02:17;;;;;;;9.88;5.88;;;10.10;99.90;;;;;;4986845;28;20198;-69
2023/11/07 03:04:44;;;;;;;11.93;6.78;;;10.10;99.90;;;;;;4983177;28;20230;-68
2023/11/07 03:07:11;;;;;;;8.35;5.47;;;10.00;99.90;;;;;;4977978;28;20210;-70
2023/11/07 03:09:38;;;;;;;7.20;6.05;;;10.10;99.90;;;;;;4982327;28;20210;-69
2023/11/07 03:12:05;;;;;;;15.52;6.57;;;10.10;99.90;;;;;;4989064;28;20200;-69
2023/11/07 03:14:37;;;;;;;11.18;6.07;;;10.10;99.90;;;;;;4979833;28;20308;-72
2023/11/07 03:17:06;;;;;;;9.35;5.70;;;10.20;99.90;;;;;;4987550;28;20206;-69
2023/11/07 03:19:33;;;;;;;14.43;6.80;;;10.10;99.90;;;;;;4986546;28;20254;-68
2023/11/07 03:22:00;;;;;;;10.00;5.82;;;10.20;99.90;;;;;;4984213;28;20210;-71
2023/11/07 03:24:26;;;;;;;6.82;5.95;;;10.20;99.90;;;;;;4981444;28;20226;-70
2023/11/07 03:26:53;;;;;;;8.27;6.18;;;10.20;99.90;;;;;;4980765;28;20228;-69
2023/11/07 03:29:20;;;;;;;21.33;7.65;;;10.30;99.90;;;;;;4982580;28;20701;-69
2023/11/07 03:31:47;;;;;;;9.95;5.15;;;10.30;99.90;;;;;;4980038;28;20553;-69
2023/11/07 03:34:16;;;;;;;10.13;5.82;;;10.30;99.90;;;;;;4982323;28;20226;-71
2023/11/07 03:36:43;;;;;;;17.33;7.13;;;10.30;99.90;;;;;;4978588;28;20709;-67
2023/11/07 03:39:10;;;;;;;10.43;7.13;;;10.40;99.90;;;;;;4981155;28;20269;-69
2023/11/07 03:41:40;;;;;;;9.55;5.20;;;10.40;99.90;;;;;;4981123;28;20273;-70
2023/11/07 03:44:07;;;;;;;9.30;6.55;;;10.40;99.90;;;;;;4982310;28;20288;-68
2023/11/07 03:46:34;;;;;;;6.95;5.70;;;10.50;99.90;;;;;;4991384;28;20286;-68
2023/11/07 03:49:01;;;;;;;11.32;5.97;;;10.40;99.90;;;;;;4980548;28;20682;-68
2023/11/07 03:51:30;;;;;;;8.85;6.60;;;10.50;99.90;;;;;;4993618;28;20206;-69
2023/11/07 03:53:56;;;;;;;13.63;6.30;;;10.50;99.90;;;;;;5000780;28;20229;-68
2023/11/07 04:26:35;;;;;;;14.57;7.30;;;10.40;99.90;;;;;;4939427;29;20215;-86
2023/11/07 04:29:03;;;;;;;12.18;6.40;;;10.40;99.90;;;;;;4957520;28;20234;-85
2023/11/07 04:31:31;;;;;;;7.65;6.80;;;10.40;99.90;;;;;;4982703;28;20245;-84
2023/11/07 04:33:57;;;;;;;8.45;6.57;;;10.30;99.90;;;;;;5000184;28;20209;-84
2023/11/07 04:36:24;;;;;;;8.57;6.82;;;10.30;99.90;;;;;;4998871;28;20230;-85
2023/11/07 04:38:53;;;;;;;11.18;6.50;;;10.30;99.90;;;;;;4998431;28;20311;-84
2023/11/07 04:41:20;;;;;;;23.98;8.02;;;10.30;99.90;;;;;;4992364;28;20666;-84
2023/11/07 04:43:47;;;;;;;17.92;9.18;;;10.30;99.90;;;;;;4991280;28;20670;-84
2023/11/07 04:46:14;;;;;;;14.35;7.97;;;10.30;99.90;;;;;;5005801;28;20241;-84
2023/11/07 04:48:40;;;;;;;12.02;7.10;;;10.40;99.90;;;;;;4991489;28;20640;-84
2023/11/07 04:51:07;;;;;;;11.63;6.97;;;10.40;99.90;;;;;;4993528;28;20237;-84
2023/11/07 04:53:36;;;;;;;11.48;6.30;;;10.50;99.90;;;;;;4993873;28;20206;-84
2023/11/07 04:56:05;;;;;;;12.23;7.35;;;10.40;99.90;;;;;;4993282;28;20256;-83
2023/11/07 04:58:32;;;;;;;9.40;7.45;;;10.40;99.90;;;;;;4989935;28;20222;-84
2023/11/07 05:00:59;;;;;;;8.55;6.78;;;10.30;99.90;;;;;;4999077;28;20244;-84
2023/11/07 05:03:31;;;;;;;13.90;6.82;;;10.40;99.90;;;;;;5002871;28;20213;-83
2023/11/07 05:05:59;;;;;;;14.38;9.55;;;10.40;99.90;;;;;;5000834;28;20202;-84
2023/11/07 05:08:26;;;;;;;11.45;9.10;;;10.40;99.90;;;;;;4999117;28;20216;-83
2023/11/07 05:10:52;;;;;;;10.38;7.22;;;10.40;99.90;;;;;;5008543;28;20238;-83
2023/11/07 05:13:21;;;;;;;8.90;6.70;;;10.40;99.90;;;;;;5002754;28;20306;-83
2023/11/07 05:15:48;;;;;;;9.82;6.18;;;10.40;99.90;;;;;;5007045;28;20211;-83
2023/11/07 05:18:15;;;;;;;7.43;6.38;;;10.50;99.90;;;;;;5007107;28;20224;-84
2023/11/07 05:20:43;;;;;;;9.60;6.72;;;10.50;99.90;;;;;;5008700;28;20229;-85
2023/11/07 05:23:10;;;;;;;13.52;7.85;;;10.50;99.90;;;;;;5004323;28;20694;-84
2023/11/07 05:25:36;;;;;;;14.10;6.80;;;10.50;99.90;;;;;;5010100;28;20216;-84
2023/11/07 05:28:05;;;;;;;7.38;5.93;;;10.50;99.90;;;;;;5008201;28;20224;-83
2023/11/07 05:30:34;;;;;;;13.63;7.38;;;10.40;99.90;;;;;;5006411;28;20233;-83
2023/11/07 05:33:00;;;;;;;11.52;7.60;;;10.30;99.90;;;;;;5008395;28;20199;-83
2023/11/07 05:35:27;;;;;;;11.32;8.07;;;10.30;99.90;;;;;;5011548;28;20218;-84
2023/11/07 05:37:54;;;;;;;12.60;8.70;;;10.20;99.90;;;;;;5017784;28;20241;-85
2023/11/07 05:40:23;;;;;;;11.73;7.05;;;10.30;99.90;;;;;;5005631;28;20323;-84
2023/11/07 05:42:51;;;;;;;16.88;6.85;;;10.20;99.90;;;;;;5002513;28;20293;-84
2023/11/07 05:45:18;;;;;;;14.45;8.00;;;10.20;99.90;;;;;;5010126;28;20212;-84
2023/11/07 05:47:47;;;;;;;10.55;6.63;;;10.20;99.90;;;;;;4998074;28;20218;-85
2023/11/07 05:50:14;;;;;;;7.80;6.20;;;10.20;99.90;;;;;;5005772;28;20216;-83
2023/11/07 05:52:41;;;;;;;13.48;8.18;;;10.30;99.90;;;;;;5009425;28;20217;-85
2023/11/07 05:55:10;;;;;;;13.38;7.55;;;10.30;99.90;;;;;;5000055;28;20308;-83
2023/11/07 05:57:38;;;;;;;11.70;6.45;;;10.30;99.90;;;;;;5003095;28;20274;-83
2023/11/07 06:00:08;;;;;;;11.20;7.82;;;10.30;99.90;;;;;;5005537;28;20250;-85
2023/11/07 06:02:35;;;;;;;14.40;7.43;;;10.30;99.90;;;;;;5007116;28;20213;-84
2023/11/07 06:05:05;;;;;;;15.23;6.43;;;10.40;99.90;;;;;;5012907;28;20206;-85
2023/11/07 06:07:32;;;;;;;11.43;7.22;;;10.40;99.90;;;;;;5014844;28;20205;-85
2023/11/07 06:10:02;;;;;;;11.82;8.68;;;10.40;99.90;;;;;;5005643;28;20230;-87
2023/11/07 06:12:29;;;;;;;18.75;7.95;;;10.30;99.90;;;;;;4999822;28;20249;-85
2023/11/07 06:14:56;;;;;;;9.75;8.35;;;10.30;99.90;;;;;;4994778;28;20281;-84
2023/11/07 06:17:23;;;;;;;14.15;8.20;;;10.30;99.90;;;;;;4990891;28;20202;-84
2023/11/07 06:19:49;;;;;;;13.27;9.23;;;10.50;99.90;;;;;;5001268;28;20264;-84
2023/11/07 06:22:18;;;;;;;19.05;11.07;;;10.30;99.90;;;;;;4991321;28;20289;-84
2023/11/07 06:24:46;;;;;;;11.70;8.75;;;10.30;99.90;;;;;;4997021;28;20248;-82
2023/11/07 06:27:12;;;;;;;13.82;8.90;;;10.30;99.90;;;;;;4992614;28;20206;-84
2023/11/07 06:29:42;;;;;;;15.07;9.80;;;10.40;99.90;;;;;;5000835;28;20237;-84
2023/11/07 06:32:10;;;;;;;12.73;8.32;;;10.40;99.90;;;;;;5008395;28;20203;-83
2023/11/07 06:34:37;;;;;;;13.13;7.95;;;10.40;99.90;;;;;;5003419;28;20223;-83
2023/11/07 06:37:04;;;;;;;17.52;9.90;;;10.30;99.90;;;;;;5010700;28;20237;-83
2023/11/07 06:39:33;;;;;;;13.38;8.40;;;10.40;99.90;;;;;;5005962;28;20227;-84
2023/11/07 06:42:00;;;;;;;10.18;7.50;;;10.40;99.90;;;;;;5010550;28;20213;-83
2023/11/07 06:44:28;;;;;;;18.88;9.50;;;10.50;99.90;;;;;;5010662;28;20209;-84
2023/11/07 06:46:55;;;;;;;14.30;9.57;;;10.50;99.90;;;;;;5019537;28;20212;-83
2023/11/07 06:49:23;;;;;;;17.75;8.43;;;10.50;99.90;;;;;;5002974;28;20220;-84
2023/11/07 06:51:50;;;;;;;9.70;7.85;;;10.50;99.90;;;;;;5002845;28;20212;-84
2023/11/07 06:54:17;;;;;;;14.88;8.35;;;10.70;99.90;;;;;;5005527;28;20206;-85
2023/11/07 06:56:47;;;;;;;22.88;9.85;;;10.50;99.90;;;;;;5003921;28;20212;-85
2023/11/07 06:59:16;;;;;;;12.55;9.15;;;10.50;99.90;;;;;;4998405;28;20248;-84
2023/11/07 07:01:45;;;;;;;11.95;8.95;;;10.50;99.90;;;;;;5010853;28;20297;-82
2023/11/07 07:04:13;;;;;;;15.55;8.40;;;10.50;99.90;;;;;;4997085;28;20206;-82
2023/11/07 07:06:41;;;;;;;14.75;9.40;;;10.60;99.90;;;;;;5004947;28;20283;-83
2023/11/07 07:09:09;;;;;;;9.70;7.72;;;10.60;99.90;;;;;;5006927;28;20221;-81
2023/11/07 07:11:36;;;;;;;16.00;9.27;;;10.70;99.90;;;;;;4990332;28;20203;-83
2023/11/07 07:14:04;;;;;;;18.95;9.05;;;10.80;99.90;;;;;;5003799;28;20212;-82
2023/11/07 07:16:32;;;;;;;10.48;8.32;;;10.70;99.90;;;;;;4997253;28;20290;-82
2023/11/07 07:18:59;;;;;;;13.20;8.02;;;10.70;99.90;;;;;;5004292;28;20286;-83
2023/11/07 07:21:26;;;;;;;18.15;8.73;;;10.80;99.90;;;;;;5010637;28;20232;-81
2023/11/07 07:23:53;;;;;;;12.52;8.45;;;10.90;99.90;;;;;;5009482;28;20208;-83
2023/11/07 07:26:22;;;;;;;14.88;9.02;;;11.00;99.90;;;;;;5009903;28;20275;-83
2023/11/07 07:28:52;;;;;;;15.75;7.55;;;11.00;99.90;;;;;;5009122;28;20240;-84
2023/11/07 07:31:27;;;;;;;11.57;8.93;;;11.00;99.90;;;;;;5008554;28;20215;-82
2023/11/07 07:33:56;;;;;;;12.60;8.48;;;11.00;99.90;;;;;;5015186;28;20204;-82
2023/11/07 07:36:23;;;;;;;17.17;8.38;;;11.00;99.90;;;;;;5005754;28;20234;-83
2023/11/07 07:38:52;;;;;;;15.63;8.75;;;11.10;99.90;;;;;;4993530;28;20240;-84
2023/11/07 07:41:20;;;;;;;9.23;7.50;;;11.10;99.90;;;;;;4987124;28;20597;-82
2023/11/07 07:43:47;;;;;;;15.65;8.98;;;11.10;99.90;;;;;;5015263;28;20196;-84
2023/11/07 07:46:14;;;;;;;14.75;9.65;;;11.10;99.90;;;;;;5005861;28;20204;-84
2023/11/07 07:48:45;;;;;;;13.90;8.52;;;11.10;99.90;;;;;;5011485;28;20263;-83
2023/11/07 07:51:14;;;;;;;13.48;8.98;;;11.20;99.90;;;;;;5009108;28;20892;-86
2023/11/07 07:53:43;;;;;;;10.50;9.10;;;11.20;99.90;;;;;;5012644;28;20201;-86
2023/11/07 07:56:20;;;;;;;13.20;9.18;;;11.30;99.90;;;;;;5016676;28;20200;-88
2023/11/07 07:58:47;;;;;;;15.45;9.05;;;11.20;99.90;;;;;;5014814;28;20277;-82
2023/11/07 08:01:18;;;;;;;10.50;9.35;;;11.30;99.90;;;;;;5012779;28;20198;-84
2023/11/07 08:03:48;;;;;;;11.75;8.98;;;11.30;99.90;;;;;;5010212;28;20222;-81
2023/11/07 08:06:16;;;;;;;13.35;8.48;;;11.40;99.90;;;;;;5009349;28;20263;-80
2023/11/07 08:08:43;;;;;;;11.30;10.20;;;11.40;99.90;;;;;;5005691;28;20264;-82
2023/11/07 08:11:13;;;;;;;11.80;10.25;;;11.30;99.90;;;;;;5013160;28;20188;-84
2023/11/07 08:13:40;;;;;;;15.65;10.30;;;11.30;99.90;;;;;;5010452;28;20246;-86
2023/11/07 08:16:07;;;;;;;10.48;9.48;;;11.20;99.90;;;;;;5000087;28;20229;-85
2023/11/07 08:18:34;;;;;;;12.90;11.10;;;11.20;99.90;;;;;;5003506;28;20246;-85
2023/11/07 08:21:05;;;;;;;10.15;9.15;;;11.20;99.90;;;;;;4994828;28;20308;-86
2023/11/07 08:23:31;;;;;;;10.57;9.32;;;11.10;99.90;;;;;;5000002;28;20204;-86
2023/11/07 08:25:58;;;;;;;12.80;11.45;;;11.20;99.90;;;;;;4999630;28;20258;-85
2023/11/07 08:28:28;;;;;;;11.95;9.90;;;11.30;99.90;;;;;;4989473;28;20263;-83
2023/11/07 08:30:55;;;;;;;11.88;9.25;;;11.40;99.90;;;;;;4989035;28;20247;-84
2023/11/07 08:33:21;;;;;;;15.68;10.10;;;11.60;99.90;;;;;;5001989;28;20202;-83
2023/11/07 08:35:50;;;;;;;11.50;8.45;;;11.70;99.90;;;;;;4987452;28;20300;-85
2023/11/07 08:38:18;;;;;;;14.85;8.60;;;11.90;99.90;;;;;;4982108;28;20229;-83
2023/11/07 08:40:45;;;;;;;9.48;8.38;;;11.90;99.90;;;;;;4986395;28;20710;-85
2023/11/07 08:46:19;;;;;;;11.52;9.30;;;11.90;99.90;;;;;;5005272;28;20252;-87
2023/11/07 08:48:50;;;;;;;11.23;10.13;;;11.70;99.90;;;;;;4990876;28;20648;-85
2023/11/07 08:51:17;;;;;;;11.10;9.55;;;11.60;99.90;;;;;;4993803;28;20292;-84
2023/11/07 08:53:45;;;;;;;16.40;11.75;;;11.70;99.90;;;;;;4999261;28;20204;-85
2023/11/07 08:56:13;;;;;;;15.95;10.07;;;11.50;99.90;;;;;;4994936;28;20216;-83
2023/11/07 08:58:40;;;;;;;10.05;8.50;;;11.60;99.90;;;;;;4994640;28;20224;-84
2023/11/07 09:01:10;;;;;;;12.02;9.93;;;12.00;99.90;;;;;;4996305;28;20251;-85
2023/11/07 09:03:36;;;;;;;10.60;9.60;;;12.20;99.90;;;;;;4992176;28;20244;-84
2023/11/07 09:06:05;;;;;;;10.93;9.32;;;12.30;99.90;;;;;;5001986;28;20209;-87
2023/11/07 09:08:32;;;;;;;13.27;10.27;;;12.70;99.90;;;;;;4998964;28;20234;-86
2023/11/07 09:11:00;;;;;;;8.20;7.22;;;13.50;99.90;;;;;;5003670;28;20224;-86
2023/11/07 09:13:28;;;;;;;8.20;6.30;;;14.20;99.90;;;;;;5003157;28;20264;-85
2023/11/07 09:15:55;;;;;;;10.10;6.93;;;14.60;99.90;;;;;;5003716;28;20217;-86
2023/11/07 09:18:27;;;;;;;8.63;7.65;;;14.70;99.90;;;;;;5001045;28;20475;-85
2023/11/07 09:20:55;;;;;;;8.32;7.60;;;14.30;99.90;;;;;;4994756;28;20226;-85
2023/11/07 09:23:22;;;;;;;8.35;6.32;;;14.30;99.90;;;;;;5012230;28;20207;-84
2023/11/07 09:25:50;;;;;;;5.47;4.85;;;14.40;99.90;;;;;;5000551;28;20279;-85
2023/11/07 09:28:19;;;;;;;8.37;6.30;;;15.40;99.90;;;;;;5017252;28;20235;-85
2023/11/07 09:30:46;;;;;;;6.27;5.33;;;15.80;99.90;;;;;;4995480;28;20448;-84
2023/11/07 09:33:14;;;;;;;6.97;5.10;;;16.20;99.90;;;;;;5000054;28;20520;-85
2023/11/07 09:35:41;;;;;;;6.13;5.47;;;16.30;99.90;;;;;;5009332;28;20463;-84
2023/11/07 09:38:08;;;;;;;9.97;6.67;;;15.90;99.90;;;;;;5016800;28;20475;-84
2023/11/07 09:40:34;;;;;;;7.80;5.03;;;15.50;99.90;;;;;;5026468;28;20506;-86
2023/11/07 09:43:02;;;;;;;6.43;5.68;;;15.30;99.90;;;;;;5021871;28;20466;-85
2023/11/07 09:45:36;;;;;;;5.40;4.90;;;14.90;99.90;;;;;;5019394;28;20233;-85
2023/11/07 09:48:09;;;;;;;10.23;6.07;;;14.60;99.90;;;;;;5013433;28;20249;-83
2023/11/07 09:50:40;;;;;;;8.32;6.43;;;14.30;99.90;;;;;;5018942;28;20189;-84
2023/11/07 09:53:09;;;;;;;10.13;6.55;;;14.00;99.90;;;;;;5020631;28;20183;-86
2023/11/07 09:55:37;;;;;;;10.73;6.38;;;13.90;99.90;;;;;;5019690;28;20214;-85
2023/11/07 09:58:07;;;;;;;7.85;6.10;;;14.20;99.90;;;;;;5016286;28;20227;-87
2023/11/07 10:00:37;;;;;;;9.25;5.85;;;14.40;99.90;;;;;;5009811;28;20319;-85
2023/11/07 10:03:06;;;;;;;6.68;5.38;;;14.10;99.90;;;;;;5007150;28;20220;-87
2023/11/07 10:05:36;;;;;;;5.05;4.40;;;13.90;99.90;;;;;;5015710;28;20226;-85
2023/11/07 10:08:04;;;;;;;4.78;4.20;;;14.00;99.90;;;;;;5022097;28;20688;-86
2023/11/07 10:10:33;;;;;;;6.57;4.90;;;13.80;99.90;;;;;;5003384;28;20460;-83
2023/11/07 10:13:34;;;;;;;6.72;5.18;;;13.70;99.90;;;;;;5006600;28;20219;-86
2023/11/07 10:16:07;;;;;;;6.22;4.00;;;13.30;99.90;;;;;;5000752;28;20216;-85
2023/11/07 10:18:48;;;;;;;10.23;5.97;;;12.90;99.90;;;;;;5002964;28;20235;-86
2023/11/07 10:21:15;;;;;;;6.25;4.13;;;13.20;99.90;;;;;;5009019;28;20205;-83
2023/11/07 10:23:42;;;;;;;5.13;3.90;;;13.20;99.90;;;;;;5015093;28;20213;-81
2023/11/07 10:26:13;;;;;;;7.18;3.83;;;13.30;99.90;;;;;;4994747;28;20300;-82
2023/11/07 10:28:40;;;;;;;6.50;3.03;;;13.20;99.90;;;;;;4989640;28;20316;-82
2023/11/07 10:31:27;;;;;;;4.20;3.38;;;13.10;99.90;;;;;;5004027;28;20233;-82
2023/11/07 10:34:20;;;;;;;6.53;3.25;;;13.10;99.90;;;;;;5001115;28;20245;-81
2023/11/07 10:36:49;;;;;;;6.70;4.55;;;13.40;99.90;;;;;;5006123;28;20217;-81
2023/11/07 10:39:17;;;;;;;3.08;2.80;;;13.30;99.90;;;;;;4989541;28;20222;-81
2023/11/07 10:41:45;;;;;;;4.65;2.80;;;13.10;99.90;;;;;;4997081;28;20225;-80
2023/11/07 10:44:24;;;;;;;3.92;2.88;;;13.20;99.90;;;;;;5006441;28;20215;-80
2023/11/07 10:46:54;;;;;;;2.85;2.53;;;13.20;99.90;;;;;;5000503;28;20235;-83
2023/11/07 10:49:21;;;;;;;5.43;2.70;;;13.30;99.90;;;;;;4993205;28;20232;-82
2023/11/07 10:51:49;;;;;;;4.63;2.90;;;13.40;99.90;;;;;;5006457;28;20201;-82
2023/11/07 10:54:19;;;;;;;7.70;3.17;;;13.30;99.90;;;;;;4995200;28;20241;-82
2023/11/07 10:56:46;;;;;;;4.85;3.35;;;13.30;99.90;;;;;;4997223;28;20302;-83
2023/11/07 10:59:18;;;;;;;5.40;3.08;;;12.90;99.90;;;;;;5001380;28;20245;-83
2023/11/07 11:01:47;;;;;;;3.22;2.55;;;13.00;99.90;;;;;;5001736;28;20313;-84
2023/11/07 11:04:19;;;;;;;5.55;2.88;;;13.10;99.90;;;;;;5003279;28;20281;-83
2023/11/07 11:06:52;;;;;;;6.72;2.95;;;13.20;99.90;;;;;;5010573;28;20232;-80
2023/11/07 11:09:20;;;;;;;5.45;2.42;;;13.50;99.90;;;;;;5015543;28;20270;-81
2023/11/07 11:11:49;;;;;;;5.82;2.40;;;13.70;99.90;;;;;;5015458;28;20201;-81
2023/11/07 11:14:17;;;;;;;4.13;2.53;;;13.60;99.90;;;;;;5010478;28;20190;-82
2023/11/07 11:16:46;;;;;;;7.13;2.45;;;13.70;99.90;;;;;;5020693;28;20183;-80
2023/11/07 11:19:30;;;;;;;3.60;2.10;;;13.80;99.90;;;;;;5007568;28;20236;-81
2023/11/07 11:22:06;;;;;;;4.25;2.80;;;13.70;99.90;;;;;;5008151;28;20328;-80
2023/11/07 11:24:58;;;;;;;4.50;2.63;;;13.60;99.90;;;;;;5002480;28;20197;-81
2023/11/07 11:27:31;;;;;;;3.47;2.15;;;13.50;99.90;;;;;;5006427;28;20254;-83
2023/11/07 11:29:58;;;;;;;3.40;2.50;;;13.40;99.90;;;;;;5005481;28;20253;-83
2023/11/07 11:32:27;;;;;;;2.92;2.33;;;13.30;99.90;;;;;;5001922;28;20229;-84
2023/11/07 11:35:33;;;;;;;6.40;3.08;;;13.40;99.90;;;;;;5009145;28;20210;-84
2023/11/07 11:38:09;;;;;;;9.40;2.80;;;13.50;99.90;;;;;;4991237;28;20727;-83
2023/11/07 11:40:54;;;;;;;5.85;2.20;;;13.40;99.90;;;;;;4989252;28;20575;-84
2023/11/07 11:43:23;;;;;;;6.97;1.65;;;13.30;99.90;;;;;;4983013;28;20222;-83
2023/11/07 11:45:50;;;;;;;2.50;1.60;;;13.50;99.90;;;;;;4999122;28;22976;-83
2023/11/07 11:48:19;;;;;;;3.25;1.90;;;13.30;99.90;;;;;;5004582;28;20279;-82
2023/11/07 11:50:48;;;;;;;2.53;1.73;;;13.40;99.90;;;;;;4992710;28;20553;-83
2023/11/07 11:53:34;;;;;;;3.17;1.55;;;13.50;99.90;;;;;;4998295;28;20202;-82
2023/11/07 11:56:11;;;;;;;4.32;1.90;;;13.50;99.90;;;;;;5000095;28;20212;-83
2023/11/07 11:59:00;;;;;;;2.72;2.15;;;13.40;99.90;;;;;;4999991;28;20225;-82
2023/11/07 12:01:28;;;;;;;4.15;3.28;;;13.40;99.90;;;;;;4999745;28;20268;-84
2023/11/07 12:03:58;;;;;;;5.97;3.83;;;13.40;99.90;;;;;;4996791;28;20207;-83
2023/11/07 12:06:27;;;;;;;14.05;7.68;;;13.50;99.90;;;;;;5002443;28;20206;-81
2023/11/07 12:08:55;;;;;;;39.45;20.75;;;13.60;99.90;;;;;;5007395;28;20290;-82
2023/11/07 12:11:41;;;;;;;7.15;4.50;;;13.70;99.90;;;;;;5008400;28;20254;-83
2023/11/07 12:14:09;;;;;;;3.60;1.80;;;13.70;99.90;;;;;;5009167;28;20650;-81
2023/11/07 12:16:36;;;;;;;6.57;2.63;;;13.80;99.90;;;;;;5007200;28;20213;-82
2023/11/07 12:19:03;;;;;;;2.58;1.83;;;14.00;99.90;;;;;;5004875;28;20306;-83
2023/11/07 12:21:31;;;;;;;10.85;5.20;;;13.90;99.90;;;;;;5010739;28;20205;-81
2023/11/07 12:24:01;;;;;;;6.47;4.05;;;13.90;99.90;;;;;;5009164;28;20197;-82
2023/11/07 12:26:41;;;;;;;2.20;1.40;;;13.70;99.90;;;;;;5011883;28;20194;-82
2023/11/07 12:29:08;;;;;;;10.43;5.82;;;13.60;99.90;;;;;;5006514;28;20665;-80
2023/11/07 12:31:36;;;;;;;8.88;5.65;;;13.70;99.90;;;;;;4999154;28;20205;-80
2023/11/07 12:34:03;;;;;;;3.65;2.55;;;13.80;99.90;;;;;;5002544;28;20202;-81
2023/11/07 12:36:34;;;;;;;3.45;2.00;;;14.00;99.90;;;;;;5015435;28;20390;-82
2023/11/07 12:39:03;;;;;;;4.90;2.25;;;13.90;99.90;;;;;;5007533;28;20225;-82
2023/11/07 12:41:32;;;;;;;4.85;2.67;;;13.80;99.90;;;;;;5002161;28;20217;-82
2023/11/07 12:44:10;;;;;;;5.47;2.58;;;13.80;99.90;;;;;;4998544;28;20214;-82
2023/11/07 12:46:37;;;;;;;2.55;1.75;;;13.80;99.90;;;;;;5002092;28;20202;-83
2023/11/07 12:49:03;;;;;;;4.15;2.50;;;13.80;99.90;;;;;;4999673;28;20312;-82
2023/11/07 12:51:36;;;;;;;4.70;1.83;;;13.60;99.90;;;;;;5005603;28;20237;-82
2023/11/07 12:54:04;;;;;;;4.95;2.42;;;13.50;99.90;;;;;;5005254;28;20286;-82
2023/11/07 12:56:30;;;;;;;5.03;2.00;;;13.40;99.90;;;;;;4966517;28;1062491;-82
2023/11/07 12:59:09;;;;;;;8.32;4.13;;;13.30;99.90;;;;;;5005073;28;20226;-82
2023/11/07 13:01:36;;;;;;;4.93;1.70;;;13.40;99.90;;;;;;5000131;28;20304;-83
2023/11/07 13:04:09;;;;;;;2.85;1.85;;;13.50;99.90;;;;;;5004040;28;20213;-82
2023/11/07 13:06:38;;;;;;;4.05;2.55;;;13.50;99.90;;;;;;5005372;28;20237;-83
2023/11/07 13:09:15;;;;;;;2.97;1.60;;;13.40;99.90;;;;;;4994656;28;20257;-82
2023/11/07 13:11:44;;;;;;;4.72;1.92;;;13.30;99.90;;;;;;5003043;28;20206;-82
2023/11/07 13:14:11;;;;;;;6.95;2.20;;;13.30;99.90;;;;;;5001510;28;20460;-83
2023/11/07 13:16:39;;;;;;;5.28;1.88;;;13.30;99.90;;;;;;5005062;28;20205;-83
2023/11/07 13:19:06;;;;;;;5.00;2.50;;;13.30;99.90;;;;;;5006501;28;20241;-83
2023/11/07 13:21:33;;;;;;;5.15;1.75;;;13.30;99.90;;;;;;5002275;28;20237;-83
2023/11/07 13:24:02;;;;;;;5.80;2.00;;;13.20;99.90;;;;;;5005373;28;20296;-83
2023/11/07 13:26:29;;;;;;;4.45;1.50;;;13.20;99.90;;;;;;5010692;28;20217;-83